createdAt,value
2022-09-04T00:36:05.148Z,71.01
2022-09-04T00:38:51.064Z,70.94
2022-09-04T00:42:03.390Z,70.47
2022-09-04T00:45:30.393Z,71.76
2022-09-04T00:51:29.841Z,71.57
2022-09-04T00:54:29.860Z,70.37
2022-09-04T00:57:55.164Z,70.91
2022-09-04T01:00:25.724Z,71.56
2022-09-04T01:03:42.697Z,71.60
2022-09-04T01:06:29.993Z,71.18
2022-09-04T01:09:14.097Z,70.71
2022-09-04T01:12:07.768Z,70.98
2022-09-04T01:15:15.101Z,71.29
2022-09-04T01:18:20.934Z,71.94
2022-09-04T01:21:16.668Z,71.28
2022-09-04T01:24:07.363Z,71.22
2022-09-04T01:30:34.243Z,71.61
2022-09-04T01:33:19.264Z,71.61
2022-09-04T01:36:20.530Z,71.36
2022-09-04T01:39:10.521Z,71.55
2022-09-04T01:44:57.706Z,70.90
2022-09-04T01:47:45.241Z,70.71
2022-09-04T01:53:40.422Z,70.75
2022-09-04T02:00:09.573Z,70.61
2022-09-04T02:09:47.689Z,70.73
2022-09-04T02:12:38.256Z,70.65
2022-09-04T02:15:23.755Z,70.54
2022-09-04T02:21:48.390Z,70.48
2022-09-04T02:28:04.237Z,70.17
2022-09-04T02:31:37.534Z,70.59
2022-09-04T02:34:27.457Z,70.48
2022-09-04T02:37:36.368Z,70.54
2022-09-04T02:40:49.394Z,69.99
2022-09-04T02:43:23.615Z,70.46
2022-09-04T02:50:42.498Z,70.51
2022-09-04T02:56:30.784Z,70.26
2022-09-04T02:59:48.935Z,70.86
2022-09-04T03:02:28.579Z,70.26
2022-09-04T03:08:36.255Z,69.71
2022-09-04T03:14:36.129Z,70.20
2022-09-04T03:17:33.465Z,70.80
2022-09-04T03:20:29.930Z,69.97
2022-09-04T03:23:07.778Z,70.48
2022-09-04T03:26:34.647Z,70.25
2022-09-04T03:37:02.674Z,70.77
2022-09-04T03:39:47.265Z,71.10
2022-09-04T03:42:40.655Z,71.01
2022-09-04T03:45:43.124Z,71.13
2022-09-04T03:48:32.930Z,71.49
2022-09-04T03:51:17.238Z,71.60
2022-09-04T03:54:12.189Z,71.76
2022-09-04T03:56:58.968Z,72.06
2022-09-04T03:59:33.998Z,71.60
2022-09-04T04:02:17.165Z,71.85
2022-09-04T04:05:24.843Z,72.04
2022-09-04T04:08:33.635Z,72.18
2022-09-04T04:18:22.179Z,72.48
2022-09-04T04:20:55.134Z,72.00
2022-09-04T04:23:52.747Z,72.18
2022-09-04T04:26:57.314Z,72.39
2022-09-04T04:32:48.893Z,72.19
2022-09-04T04:35:38.455Z,72.25
2022-09-04T04:38:28.317Z,72.87
2022-09-04T04:44:18.508Z,72.64
2022-09-04T04:47:03.075Z,72.58
2022-09-04T04:50:17.493Z,72.51
2022-09-04T04:53:48.886Z,73.03
2022-09-04T04:56:28.471Z,72.88
2022-09-04T04:59:35.548Z,72.56
2022-09-04T05:02:19.210Z,72.65
2022-09-04T05:05:04.106Z,72.29
2022-09-04T05:07:51.541Z,72.12
2022-09-04T05:10:53.591Z,72.28
2022-09-04T05:13:54.093Z,71.88
2022-09-04T05:17:15.229Z,71.73
2022-09-04T05:19:52.580Z,71.85
2022-09-04T05:22:41.885Z,71.51
2022-09-04T05:25:27.606Z,71.20
2022-09-04T05:29:31.907Z,70.96
2022-09-04T05:35:54.175Z,70.68
2022-09-04T05:39:03.769Z,70.47
2022-09-04T05:42:12.224Z,70.24
2022-09-04T05:48:04.853Z,68.97
2022-09-04T05:50:41.284Z,69.61
2022-09-04T06:04:36.732Z,67.01
2022-09-04T06:07:40.418Z,66.68
2022-09-04T06:10:52.430Z,66.66
2022-09-04T06:14:32.505Z,67.11
2022-09-04T06:24:36.499Z,65.47
2022-09-04T06:27:29.980Z,64.72
2022-09-04T06:30:17.964Z,64.51
2022-09-04T06:33:17.298Z,64.93
2022-09-04T06:39:14.064Z,64.28
2022-09-04T06:42:53.236Z,64.14
2022-09-04T06:46:14.243Z,63.72
2022-09-04T06:52:33.567Z,63.47
2022-09-04T06:59:44.928Z,63.56
2022-09-04T07:02:52.889Z,62.62
2022-09-04T07:06:19.196Z,63.33
2022-09-04T07:09:20.234Z,62.16
2022-09-04T07:12:34.041Z,63.26
2022-09-04T07:15:43.550Z,62.04
2022-09-04T07:18:26.407Z,61.93
2022-09-04T07:21:21.921Z,61.64
2022-09-04T07:25:37.737Z,61.70
2022-09-04T07:28:40.053Z,61.80
2022-09-04T07:35:15.256Z,61.80
2022-09-04T07:38:04.301Z,61.14
2022-09-04T07:41:23.626Z,61.10
2022-09-04T07:44:05.215Z,60.70
2022-09-04T07:46:50.405Z,60.76
2022-09-04T07:52:54.319Z,59.95
2022-09-04T07:56:02.582Z,60.27
2022-09-04T07:59:05.676Z,60.36
2022-09-04T08:02:26.546Z,59.40
2022-09-04T08:05:32.007Z,59.08
2022-09-04T08:11:50.670Z,58.74
2022-09-04T08:15:03.485Z,59.19
2022-09-04T08:18:36.629Z,59.03
2022-09-04T08:25:17.157Z,58.80
2022-09-04T08:28:03.376Z,57.72
2022-09-04T08:30:47.495Z,57.97
2022-09-04T08:33:37.964Z,58.21
2022-09-04T08:36:36.366Z,57.79
2022-09-04T08:39:16.755Z,57.55
2022-09-04T08:42:06.554Z,58.00
2022-09-04T08:45:13.351Z,57.88
2022-09-04T08:48:08.186Z,56.82
2022-09-04T08:50:38.284Z,57.01
2022-09-04T08:53:42.346Z,56.57
2022-09-04T08:56:54.546Z,55.99
2022-09-04T09:00:13.665Z,56.24
2022-09-04T09:03:11.878Z,56.48
2022-09-04T09:06:21.736Z,55.90
2022-09-04T09:09:21.117Z,55.76
2022-09-04T09:12:55.317Z,55.03
2022-09-04T09:15:41.619Z,54.01
2022-09-04T09:21:53.257Z,54.38
2022-09-04T09:24:48.092Z,52.37
2022-09-04T09:27:34.521Z,53.02
2022-09-04T09:30:12.315Z,52.65
2022-09-04T09:36:32.082Z,53.34
2022-09-04T09:39:34.851Z,54.01
2022-09-04T09:42:45.326Z,52.29
2022-09-04T09:45:54.554Z,52.21
2022-09-04T09:48:37.666Z,51.01
2022-09-04T09:51:42.968Z,51.39
2022-09-04T09:58:28.571Z,52.31
2022-09-04T10:04:44.507Z,51.71
2022-09-04T10:07:28.982Z,49.10
2022-09-04T10:10:41.952Z,50.19
2022-09-04T10:13:41.160Z,50.66
2022-09-04T10:16:20.367Z,50.16
2022-09-04T10:19:38.556Z,49.69
2022-09-04T10:22:32.713Z,49.59
2022-09-04T10:25:31.806Z,49.48
2022-09-04T10:36:23.346Z,48.20
2022-09-04T10:45:22.778Z,47.38
2022-09-04T10:48:35.783Z,46.56
2022-09-04T10:58:35.169Z,47.59
2022-09-04T11:02:01.044Z,47.73
2022-09-04T11:05:10.759Z,47.81
2022-09-04T11:07:58.821Z,47.37
2022-09-04T11:11:01.968Z,47.15
2022-09-04T11:13:57.007Z,47.56
2022-09-04T11:16:51.373Z,48.59
2022-09-04T11:19:43.780Z,46.96
2022-09-04T11:22:51.507Z,46.40
2022-09-04T11:28:57.830Z,48.16
2022-09-04T11:31:40.717Z,47.40
2022-09-04T11:34:46.600Z,47.32
2022-09-04T11:37:46.953Z,46.75
2022-09-04T11:40:39.078Z,46.62
2022-09-04T11:43:47.134Z,46.53
2022-09-04T11:46:33.838Z,47.31
2022-09-04T11:49:31.322Z,46.34
2022-09-04T11:52:20.233Z,46.53
2022-09-04T11:55:03.799Z,46.35
2022-09-04T11:57:58.660Z,46.42
2022-09-04T12:00:44.480Z,46.94
2022-09-04T12:03:40.402Z,46.35
2022-09-04T12:06:51.237Z,47.12
2022-09-04T12:09:44.203Z,46.61
2022-09-04T12:12:14.507Z,46.83
2022-09-04T12:15:23.317Z,46.28
2022-09-04T12:18:33.542Z,47.10
2022-09-04T12:25:08.134Z,47.16
2022-09-04T12:31:54.632Z,47.27
2022-09-04T12:34:44.254Z,46.95
2022-09-04T12:38:09.422Z,47.12
2022-09-04T12:41:21.269Z,46.64
2022-09-04T12:44:44.911Z,46.43
2022-09-04T12:47:57.260Z,47.57
2022-09-04T12:55:53.182Z,45.73
2022-09-04T12:59:55.061Z,46.49
2022-09-04T13:15:08.099Z,46.12
2022-09-04T13:18:22.519Z,46.18
2022-09-04T13:21:21.330Z,46.26
2022-09-04T13:24:04.017Z,45.13
2022-09-04T14:02:37.597Z,44.74
2022-09-04T15:32:30.129Z,44.41
2022-09-04T15:35:32.776Z,44.52
2022-09-04T15:38:36.442Z,45.23
2022-09-04T15:41:45.511Z,44.01
2022-09-04T15:44:32.981Z,44.06
2022-09-04T15:47:23.306Z,44.71
2022-09-04T15:49:58.977Z,45.16
2022-09-04T15:52:38.006Z,45.35
2022-09-04T15:55:22.784Z,44.98
2022-09-04T15:58:30.240Z,44.52
2022-09-04T16:01:06.684Z,44.50
2022-09-04T16:04:01.464Z,45.10
2022-09-04T16:06:32.363Z,44.65
2022-09-04T16:09:12.944Z,45.01
2022-09-04T16:14:56.730Z,45.00
2022-09-04T16:17:31.560Z,45.02
2022-09-04T16:19:59.731Z,45.13
2022-09-04T16:22:35.392Z,46.61
2022-09-04T16:25:16.153Z,46.54
2022-09-04T16:27:54.390Z,47.29
2022-09-04T16:30:30.846Z,46.62
2022-09-04T16:35:55.535Z,47.08
2022-09-04T16:38:32.371Z,47.54
2022-09-04T16:41:17.302Z,48.54
2022-09-04T16:44:34.297Z,47.49
2022-09-04T16:47:15.150Z,48.77
2022-09-04T16:49:55.211Z,47.47
2022-09-04T16:55:44.694Z,47.46
2022-09-04T16:58:40.224Z,48.19
2022-09-04T17:01:18.112Z,47.48
2022-09-04T17:04:57.391Z,47.94
2022-09-04T17:08:13.324Z,49.04
2022-09-04T17:11:19.355Z,48.73
2022-09-04T17:14:30.418Z,49.10
2022-09-04T17:17:31.208Z,49.25
2022-09-04T17:20:06.327Z,49.36
2022-09-04T17:29:02.631Z,51.13
2022-09-04T17:29:22.444Z,50.27
2022-09-04T17:29:47.711Z,50.87
2022-09-04T17:34:54.540Z,51.40
2022-09-04T17:40:33.974Z,50.92
2022-09-04T17:40:41.017Z,52.46
2022-09-04T17:42:09.663Z,50.78
2022-09-04T17:44:53.708Z,51.32
2022-09-04T17:47:42.711Z,52.10
2022-09-04T17:50:16.485Z,51.51
2022-09-04T17:53:14.654Z,51.74
2022-09-04T17:56:10.413Z,51.66
2022-09-04T17:58:52.287Z,51.92
2022-09-04T18:05:03.473Z,51.96
2022-09-04T18:08:09.028Z,52.16
2022-09-04T18:10:46.123Z,51.95
2022-09-04T18:13:37.089Z,52.12
2022-09-04T18:16:36.212Z,53.10
2022-09-04T18:19:33.069Z,51.97
2022-09-04T18:22:26.499Z,52.10
2022-09-04T18:25:16.577Z,52.03
2022-09-04T18:28:06.580Z,52.51
2022-09-04T18:37:07.403Z,52.92
2022-09-04T18:37:08.801Z,52.25
2022-09-04T18:37:44.775Z,52.58
2022-09-04T18:41:00.770Z,53.17
2022-09-04T18:50:20.503Z,53.61
2022-09-04T18:50:31.757Z,53.02
2022-09-04T18:50:52.510Z,53.80
2022-09-04T18:52:30.029Z,53.17
2022-09-04T18:55:24.413Z,54.02
2022-09-04T18:58:13.138Z,53.17
2022-09-04T19:00:53.265Z,53.36
2022-09-04T19:03:26.173Z,53.17
2022-09-04T19:05:57.848Z,54.44
2022-09-04T19:08:57.702Z,53.48
2022-09-04T19:11:36.880Z,54.08
2022-09-04T19:14:17.504Z,54.70
2022-09-04T19:16:51.570Z,53.79
2022-09-04T19:19:38.032Z,53.90
2022-09-04T19:22:28.508Z,54.17
2022-09-04T19:25:04.614Z,54.15
2022-09-04T19:27:41.056Z,54.43
2022-09-04T19:30:18.719Z,55.03
2022-09-04T19:33:02.926Z,54.91
2022-09-04T19:35:43.133Z,55.63
2022-09-04T19:45:55.529Z,54.94
2022-09-04T19:46:03.049Z,54.86
2022-09-04T19:46:14.130Z,55.50
2022-09-04T19:47:38.371Z,55.71
2022-09-04T19:53:18.186Z,55.09
2022-09-04T19:53:42.104Z,55.35
2022-09-04T19:56:19.381Z,55.29
2022-09-04T19:58:58.164Z,55.87
2022-09-04T20:01:38.539Z,55.78
2022-09-04T20:04:18.453Z,56.62
2022-09-04T20:06:53.240Z,56.06
2022-09-04T20:09:29.088Z,56.49
2022-09-04T20:12:13.456Z,56.06
2022-09-04T20:14:55.033Z,56.31
2022-09-04T20:18:04.148Z,57.07
2022-09-04T20:20:58.785Z,56.45
2022-09-04T20:26:57.568Z,56.70
2022-09-04T20:29:54.899Z,56.22
2022-09-04T20:32:28.487Z,56.99
2022-09-04T20:35:13.750Z,57.00
2022-09-04T20:37:48.703Z,56.44
2022-09-04T20:40:36.521Z,57.23
2022-09-04T20:43:03.310Z,56.71
2022-09-04T20:51:13.766Z,56.82
2022-09-04T20:52:50.301Z,56.75
2022-09-04T20:52:53.678Z,57.19
2022-09-04T20:55:34.582Z,56.92
2022-09-04T21:03:14.378Z,56.75
2022-09-04T21:05:15.144Z,57.57
2022-09-04T21:07:56.292Z,57.64
2022-09-04T21:14:45.939Z,57.42
2022-09-04T21:17:34.911Z,58.36
2022-09-04T21:23:56.601Z,58.36
2022-09-04T21:33:42.383Z,58.97
2022-09-04T21:36:35.233Z,59.00
2022-09-04T21:39:03.213Z,59.06
2022-09-04T21:41:52.057Z,59.53
2022-09-04T21:45:02.671Z,59.44
2022-09-04T21:48:04.892Z,59.62
2022-09-04T21:51:30.146Z,59.29
2022-09-04T21:57:05.529Z,60.06
2022-09-04T22:02:35.218Z,60.35
2022-09-04T22:02:40.143Z,60.76
2022-09-04T22:04:16.723Z,60.44
2022-09-04T22:09:55.950Z,60.32
2022-09-04T22:13:32.635Z,60.45
2022-09-04T22:13:48.371Z,60.57
2022-09-04T22:16:46.950Z,60.69
2022-09-04T22:20:04.586Z,60.88
2022-09-04T22:22:43.403Z,61.18
2022-09-04T22:25:41.343Z,60.87
2022-09-04T22:28:18.142Z,60.94
2022-09-04T22:31:08.496Z,61.06
2022-09-04T22:34:15.077Z,60.80
2022-09-04T22:37:13.440Z,60.81
2022-09-04T22:40:23.681Z,60.87
2022-09-04T22:43:12.969Z,61.19
2022-09-04T22:46:03.240Z,61.29
2022-09-04T22:49:13.015Z,61.61
2022-09-04T22:52:29.862Z,61.62
2022-09-04T22:56:19.202Z,61.47
2022-09-04T22:58:27.380Z,61.42
2022-09-04T23:01:20.876Z,61.57
2022-09-04T23:04:15.415Z,61.53
2022-09-04T23:12:53.401Z,61.24
2022-09-04T23:13:59.441Z,61.72
2022-09-04T23:14:01.902Z,62.24
2022-09-04T23:16:36.855Z,61.91
2022-09-04T23:24:00.036Z,62.15
2022-09-04T23:26:32.772Z,61.76
2022-09-04T23:27:00.072Z,61.68
2022-09-04T23:29:44.696Z,61.72
2022-09-04T23:32:36.101Z,61.92
2022-09-04T23:35:19.693Z,62.32
2022-09-04T23:38:02.086Z,62.18
2022-09-04T23:41:02.216Z,62.59
2022-09-04T23:43:45.746Z,62.12
2022-09-04T23:46:44.809Z,62.31
2022-09-04T23:49:23.594Z,62.20
2022-09-04T23:52:12.540Z,62.39
2022-09-04T23:54:51.542Z,62.49
